Decoded Metar for LECH (CALAMOCHA in SPAIN) (IATA:N/A) | Meteo·Mobile Aviation Weather
aviador You're here:

LECH Decoded Metar

CALAMOCHA in SPAIN
Report Time2019-10-19 22:30:00
UTC Time2019-10-19 22:46:22
Flight Rules vfr VFR
WindCalm
Visibility9000 m
Phenomena:N/A
Clouds:N/A
Expected CloudBase > 800 ft AGL from Temp-Dew spread
CeilingNone
Temp16°C (ISA +7)
Dew Point14°C (88% RH)
QNH1007 hPa
Density Alt4,183 ft
Elevation2,949 ft
Report Wrong Elevation
Raw Report
METAR LECH 192230Z AUTO 00000KT 9000 NCD 16/14 Q1007=

Extra information for LECH:More info

Metar Taf Metar & Taf Last 4 Metars F.Rules Stats Wind Profile Meteogram Temp Stats Airport Information Weather charts Add Link Nearby VenuesMetar ALERT Operation Metar Decoded Social comments